Time;durP1;ratioP1;P1;durP2;ratioP2;P2;SDS_P1;SDS_P2;PMS_P1;PMS_P2;Temp;Humidity;BMP_temperature;BMP_pressure;BME280_temperature;BME280_humidity;BME280_pressure;Samples;Min_cycle;Max_cycle;Signal;HPM_P1;HPM_P2
2022/08/04 00:02:17;;;;;;;11.00;6.93;;;;;;;;;;5052472;28;20181;-65
2022/08/04 00:04:54;;;;;;;9.23;6.07;;;;;;;;;;5056404;28;20606;-65
2022/08/04 00:07:31;;;;;;;10.50;6.80;;;;;;;;;;5052699;28;20180;-65
2022/08/04 00:10:05;;;;;;;8.80;6.93;;;;;;;;;;5052709;28;20588;-65
2022/08/04 00:12:32;;;;;;;14.68;8.18;;;;;;;;;;5057752;28;20545;-65
2022/08/04 00:14:59;;;;;;;14.70;8.85;;;;;;;;;;5050439;28;20669;-65
2022/08/04 00:17:31;;;;;;;12.48;7.70;;;;;;;;;;5053490;28;20574;-65
2022/08/04 00:19:59;;;;;;;13.23;7.80;;;;;;;;;;5057852;28;20774;-65
2022/08/04 00:22:30;;;;;;;10.18;7.40;;;;;;;;;;5052877;28;20230;-65
2022/08/04 00:24:56;;;;;;;16.73;7.80;;;;;;;;;;5056200;28;20185;-65
2022/08/04 00:27:22;;;;;;;12.63;7.30;;;;;;;;;;5050741;28;20275;-65
2022/08/04 00:29:48;;;;;;;11.73;7.30;;;;;;;;;;5057363;28;20284;-65
2022/08/04 00:32:16;;;;;;;10.52;7.63;;;;;;;;;;5067470;28;20732;-65
2022/08/04 00:34:42;;;;;;;12.00;7.53;;;;;;;;;;5054064;28;20182;-65
2022/08/04 00:37:09;;;;;;;16.23;7.00;;;;;;;;;;5052599;28;20209;-65
2022/08/04 00:39:34;;;;;;;10.75;7.68;;;;;;;;;;5058756;28;20227;-65
2022/08/04 00:42:20;;;;;;;14.63;7.88;;;;;;;;;;5056394;28;20220;-65
2022/08/04 00:45:07;;;;;;;15.70;7.60;;;;;;;;;;5053823;28;20178;-65
2022/08/04 00:48:00;;;;;;;10.32;7.50;;;;;;;;;;5050657;28;20588;-65
2022/08/04 00:50:34;;;;;;;10.57;7.43;;;;;;;;;;5054115;28;20185;-65
2022/08/04 00:53:18;;;;;;;11.85;7.25;;;;;;;;;;5054128;28;20200;-65
2022/08/04 00:56:11;;;;;;;14.25;7.97;;;;;;;;;;5061849;28;20652;-65
2022/08/04 00:58:58;;;;;;;11.77;8.57;;;;;;;;;;5059285;28;20196;-65
2022/08/04 01:01:38;;;;;;;12.52;7.70;;;;;;;;;;5073018;28;20191;-65
2022/08/04 01:04:14;;;;;;;9.25;6.70;;;;;;;;;;5057513;28;20218;-65
2022/08/04 01:07:08;;;;;;;14.43;7.18;;;;;;;;;;5057782;28;20243;-65
2022/08/04 01:10:06;;;;;;;7.88;7.00;;;;;;;;;;5056097;28;20185;-65
2022/08/04 01:12:51;;;;;;;11.25;6.78;;;;;;;;;;5056361;28;20486;-65
2022/08/04 01:15:39;;;;;;;15.98;7.80;;;;;;;;;;5053814;28;20250;-65
2022/08/04 01:18:07;;;;;;;12.55;7.38;;;;;;;;;;5058339;28;20201;-65
2022/08/04 01:20:40;;;;;;;12.65;7.10;;;;;;;;;;5052058;28;20177;-65
2022/08/04 01:23:17;;;;;;;13.32;8.10;;;;;;;;;;5057005;28;20179;-65
2022/08/04 01:26:05;;;;;;;14.18;8.57;;;;;;;;;;5056192;28;20229;-65
2022/08/04 01:29:05;;;;;;;12.50;8.60;;;;;;;;;;5057458;28;20185;-65
2022/08/04 01:31:41;;;;;;;13.07;7.28;;;;;;;;;;5051905;28;20285;-65
2022/08/04 01:34:10;;;;;;;15.65;7.93;;;;;;;;;;5056238;28;20583;-65
2022/08/04 01:36:45;;;;;;;10.75;8.07;;;;;;;;;;5060339;28;20200;-65
2022/08/04 01:41:57;;;;;;;11.57;8.18;;;;;;;;;;5059606;28;20538;-65
2022/08/04 01:44:23;;;;;;;17.63;8.25;;;;;;;;;;5060691;28;20272;-65
2022/08/04 01:46:51;;;;;;;15.75;8.98;;;;;;;;;;5056441;28;20649;-65
2022/08/04 01:49:21;;;;;;;14.27;8.05;;;;;;;;;;5057345;28;20184;-65
2022/08/04 01:51:50;;;;;;;14.18;7.78;;;;;;;;;;5050353;28;20196;-65
2022/08/04 01:54:16;;;;;;;10.43;6.95;;;;;;;;;;5054768;28;20550;-65
2022/08/04 01:56:43;;;;;;;13.35;7.38;;;;;;;;;;5053652;28;20699;-65
2022/08/04 01:59:10;;;;;;;11.02;7.70;;;;;;;;;;5057628;28;20196;-65
2022/08/04 02:01:36;;;;;;;10.27;7.10;;;;;;;;;;5053055;28;20666;-65
2022/08/04 02:04:01;;;;;;;11.68;7.53;;;;;;;;;;5061615;28;20189;-65
2022/08/04 02:06:55;;;;;;;12.82;7.20;;;;;;;;;;5059712;28;20628;-65
2022/08/04 02:09:43;;;;;;;12.02;7.03;;;;;;;;;;5056147;28;20181;-65
2022/08/04 02:12:24;;;;;;;14.07;7.18;;;;;;;;;;5051721;28;20200;-65
2022/08/04 02:14:58;;;;;;;11.95;7.20;;;;;;;;;;5058970;28;20327;-65
2022/08/04 02:17:49;;;;;;;11.30;7.03;;;;;;;;;;5062316;28;20223;-65
2022/08/04 02:20:21;;;;;;;8.48;6.57;;;;;;;;;;5053656;28;20190;-65
2022/08/04 02:22:56;;;;;;;12.27;6.63;;;;;;;;;;5055762;28;20212;-65
2022/08/04 02:25:24;;;;;;;11.50;7.07;;;;;;;;;;5054991;28;20195;-65
2022/08/04 02:28:01;;;;;;;11.63;7.25;;;;;;;;;;5050475;28;20181;-65
2022/08/04 02:30:37;;;;;;;11.38;7.20;;;;;;;;;;5056845;28;20180;-65
2022/08/04 02:33:07;;;;;;;11.48;6.63;;;;;;;;;;5060798;28;20219;-65
2022/08/04 02:35:37;;;;;;;11.60;6.85;;;;;;;;;;5051209;28;20188;-65
2022/08/04 02:38:07;;;;;;;9.00;5.85;;;;;;;;;;5058846;28;20659;-65
2022/08/04 02:40:33;;;;;;;10.55;6.25;;;;;;;;;;5057199;28;20833;-65
2022/08/04 02:43:02;;;;;;;13.27;6.82;;;;;;;;;;5059703;28;20240;-65
2022/08/04 02:45:30;;;;;;;11.85;6.18;;;;;;;;;;5056925;28;20174;-65
2022/08/04 02:47:59;;;;;;;13.23;6.05;;;;;;;;;;5053534;28;20222;-65
2022/08/04 02:50:26;;;;;;;10.73;6.22;;;;;;;;;;5053373;28;20184;-65
2022/08/04 02:52:53;;;;;;;11.43;6.43;;;;;;;;;;5053775;28;20323;-65
2022/08/04 02:55:19;;;;;;;12.88;6.38;;;;;;;;;;5057111;28;20329;-65
2022/08/04 02:57:46;;;;;;;9.52;5.90;;;;;;;;;;5055667;28;20276;-65
2022/08/04 03:00:13;;;;;;;12.20;5.93;;;;;;;;;;5059246;28;20201;-65
2022/08/04 03:03:00;;;;;;;10.65;5.40;;;;;;;;;;5056269;28;20181;-65
2022/08/04 03:05:31;;;;;;;11.20;5.45;;;;;;;;;;5054809;28;20188;-65
2022/08/04 03:08:33;;;;;;;9.13;5.90;;;;;;;;;;5057069;28;20216;-65
2022/08/04 03:11:23;;;;;;;10.05;5.50;;;;;;;;;;5055870;28;20189;-65
2022/08/04 03:14:03;;;;;;;11.05;5.47;;;;;;;;;;5057073;28;20209;-65
2022/08/04 03:16:59;;;;;;;7.63;5.75;;;;;;;;;;5055820;28;20196;-65
2022/08/04 03:19:40;;;;;;;13.23;5.43;;;;;;;;;;5054291;28;20181;-65
2022/08/04 03:22:21;;;;;;;10.60;5.88;;;;;;;;;;5046695;28;20197;-65
2022/08/04 03:25:25;;;;;;;10.27;5.88;;;;;;;;;;5053784;28;20168;-65
2022/08/04 03:28:18;;;;;;;11.30;5.70;;;;;;;;;;5048698;28;20695;-65
2022/08/04 03:30:47;;;;;;;10.65;5.72;;;;;;;;;;5047013;28;20264;-65
2022/08/04 03:33:48;;;;;;;9.77;5.72;;;;;;;;;;5046355;28;20190;-65
2022/08/04 03:36:46;;;;;;;11.57;5.35;;;;;;;;;;5055381;28;20234;-65
2022/08/04 03:39:37;;;;;;;7.25;4.93;;;;;;;;;;5051334;28;20309;-65
2022/08/04 03:42:02;;;;;;;10.48;5.13;;;;;;;;;;5059092;28;20193;-65
2022/08/04 03:45:18;;;;;;;9.05;5.13;;;;;;;;;;5062707;28;20189;-65
2022/08/04 03:48:04;;;;;;;9.35;4.78;;;;;;;;;;5051764;28;20216;-65
2022/08/04 03:54:01;;;;;;;7.90;4.63;;;;;;;;;;5053397;28;20233;-65
2022/08/04 03:56:53;;;;;;;10.05;4.63;;;;;;;;;;5052297;28;20204;-66
2022/08/04 03:59:40;;;;;;;12.75;4.90;;;;;;;;;;5056361;28;20268;-65
2022/08/04 04:02:37;;;;;;;9.20;5.15;;;;;;;;;;5052651;28;20272;-65
2022/08/04 04:05:17;;;;;;;10.05;4.68;;;;;;;;;;5054658;28;20190;-65
2022/08/04 04:07:57;;;;;;;10.00;5.38;;;;;;;;;;5058144;28;20177;-65
2022/08/04 04:10:56;;;;;;;10.70;4.18;;;;;;;;;;5052936;28;20184;-65
2022/08/04 04:13:34;;;;;;;6.18;4.00;;;;;;;;;;5060347;28;20227;-65
2022/08/04 04:16:20;;;;;;;12.55;4.90;;;;;;;;;;5060399;28;20184;-65
2022/08/04 04:19:00;;;;;;;8.00;4.15;;;;;;;;;;5056725;28;20201;-65
2022/08/04 04:21:46;;;;;;;10.85;4.50;;;;;;;;;;5055218;28;20196;-65
2022/08/04 04:24:51;;;;;;;12.77;4.70;;;;;;;;;;5054341;28;20545;-65
2022/08/04 04:27:48;;;;;;;9.82;4.10;;;;;;;;;;5052566;28;20225;-65
2022/08/04 04:30:25;;;;;;;7.30;4.20;;;;;;;;;;5063322;28;20628;-65
2022/08/04 04:33:36;;;;;;;9.07;4.30;;;;;;;;;;5057724;28;20243;-65
2022/08/04 04:36:23;;;;;;;9.30;4.47;;;;;;;;;;5063146;28;20178;-65
2022/08/04 04:39:23;;;;;;;7.68;3.85;;;;;;;;;;5060253;28;20239;-65
2022/08/04 04:42:16;;;;;;;11.10;3.95;;;;;;;;;;5056798;28;20242;-65
2022/08/04 04:45:03;;;;;;;10.18;4.25;;;;;;;;;;5052751;28;20547;-65
2022/08/04 04:47:53;;;;;;;8.32;4.05;;;;;;;;;;5053507;28;20185;-65
2022/08/04 04:50:29;;;;;;;11.90;3.85;;;;;;;;;;5059416;28;20185;-66
2022/08/04 04:53:40;;;;;;;11.50;3.97;;;;;;;;;;5065608;28;20195;-66
2022/08/04 04:56:15;;;;;;;7.70;4.40;;;;;;;;;;5044189;28;20543;-66
2022/08/04 04:58:42;;;;;;;12.95;4.20;;;;;;;;;;5055189;28;20223;-66
2022/08/04 05:01:27;;;;;;;9.48;3.53;;;;;;;;;;5051211;28;20200;-66
2022/08/04 05:04:36;;;;;;;8.05;3.85;;;;;;;;;;5049854;28;20561;-65
2022/08/04 05:07:29;;;;;;;6.43;3.60;;;;;;;;;;5011834;28;20860;-66
2022/08/04 05:10:38;;;;;;;9.40;4.05;;;;;;;;;;5053006;28;20241;-66
2022/08/04 05:13:15;;;;;;;13.60;3.40;;;;;;;;;;5062822;28;20185;-66
2022/08/04 05:15:44;;;;;;;8.82;3.25;;;;;;;;;;5055520;28;20187;-66
2022/08/04 05:18:14;;;;;;;9.25;3.38;;;;;;;;;;5053733;28;20211;-66
2022/08/04 05:20:44;;;;;;;8.35;3.67;;;;;;;;;;5056189;28;20259;-66
2022/08/04 05:23:25;;;;;;;11.13;3.42;;;;;;;;;;5056203;28;20173;-66
2022/08/04 05:26:11;;;;;;;10.43;3.42;;;;;;;;;;5055288;28;20853;-66
2022/08/04 05:28:49;;;;;;;8.63;3.55;;;;;;;;;;5057147;28;20181;-66
2022/08/04 05:31:19;;;;;;;10.45;3.63;;;;;;;;;;5049286;28;20200;-66
2022/08/04 05:33:58;;;;;;;11.98;3.22;;;;;;;;;;5059595;28;20184;-65
2022/08/04 05:36:33;;;;;;;11.63;4.10;;;;;;;;;;5053964;28;20217;-65
2022/08/04 05:39:00;;;;;;;10.70;3.10;;;;;;;;;;5053535;28;20204;-65
2022/08/04 05:41:28;;;;;;;9.93;3.63;;;;;;;;;;5055377;28;20195;-65
2022/08/04 05:43:54;;;;;;;9.35;3.05;;;;;;;;;;5053243;28;20287;-65
2022/08/04 05:46:20;;;;;;;8.25;3.10;;;;;;;;;;5053945;28;20209;-66
2022/08/04 05:48:46;;;;;;;13.07;3.50;;;;;;;;;;5062921;28;20177;-66
2022/08/04 05:51:13;;;;;;;8.60;3.25;;;;;;;;;;5060954;28;20194;-66
2022/08/04 05:53:43;;;;;;;10.93;3.78;;;;;;;;;;5054336;28;20219;-66
2022/08/04 05:56:10;;;;;;;10.43;3.33;;;;;;;;;;5061245;28;20393;-67
2022/08/04 05:58:36;;;;;;;8.75;3.40;;;;;;;;;;5056716;28;20197;-66
2022/08/04 06:01:04;;;;;;;8.00;2.80;;;;;;;;;;5054169;28;20192;-66
2022/08/04 06:03:30;;;;;;;8.07;3.20;;;;;;;;;;5056314;28;20619;-66
2022/08/04 06:05:56;;;;;;;13.07;3.45;;;;;;;;;;5055596;28;20221;-65
2022/08/04 06:08:23;;;;;;;13.80;3.90;;;;;;;;;;5049117;28;20178;-67
2022/08/04 06:10:50;;;;;;;13.27;4.55;;;;;;;;;;5053059;28;20238;-65
2022/08/04 06:13:18;;;;;;;13.18;3.75;;;;;;;;;;5051212;28;20181;-66
2022/08/04 06:15:47;;;;;;;14.73;3.90;;;;;;;;;;5060381;28;20184;-65
2022/08/04 06:18:13;;;;;;;11.05;3.38;;;;;;;;;;5056863;28;20318;-65
2022/08/04 06:20:41;;;;;;;10.07;3.75;;;;;;;;;;5058478;28;20184;-65
2022/08/04 06:23:10;;;;;;;10.48;3.97;;;;;;;;;;5057425;28;20697;-65
2022/08/04 06:25:44;;;;;;;11.93;3.78;;;;;;;;;;5055527;28;20232;-65
2022/08/04 06:28:11;;;;;;;14.20;3.70;;;;;;;;;;5055670;28;20208;-65
2022/08/04 06:30:39;;;;;;;12.30;3.40;;;;;;;;;;5052779;28;20223;-65
2022/08/04 06:33:23;;;;;;;11.57;3.15;;;;;;;;;;5054503;28;20728;-65
2022/08/04 06:35:52;;;;;;;16.23;3.97;;;;;;;;;;5056208;28;20496;-65
2022/08/04 06:38:19;;;;;;;10.98;3.35;;;;;;;;;;5056823;28;20201;-65
2022/08/04 06:40:45;;;;;;;11.07;3.80;;;;;;;;;;5057448;28;20564;-64
2022/08/04 06:43:11;;;;;;;11.07;4.25;;;;;;;;;;5051958;28;20189;-66
2022/08/04 06:45:38;;;;;;;13.07;3.78;;;;;;;;;;5049078;28;20264;-66
2022/08/04 06:48:06;;;;;;;11.80;4.43;;;;;;;;;;5050385;28;20185;-66
2022/08/04 06:50:34;;;;;;;10.68;4.32;;;;;;;;;;5057826;28;20230;-65
2022/08/04 06:52:59;;;;;;;10.93;3.70;;;;;;;;;;5056358;28;20196;-65
2022/08/04 06:55:26;;;;;;;13.32;4.65;;;;;;;;;;5055043;28;20522;-66
2022/08/04 06:57:53;;;;;;;12.45;4.95;;;;;;;;;;5052902;28;20205;-66
2022/08/04 07:00:18;;;;;;;11.68;3.95;;;;;;;;;;5059156;28;20180;-66
2022/08/04 07:02:48;;;;;;;10.75;3.92;;;;;;;;;;5054938;28;20208;-66
2022/08/04 07:05:14;;;;;;;11.70;3.95;;;;;;;;;;5060891;28;20180;-65
2022/08/04 07:07:40;;;;;;;13.18;5.55;;;;;;;;;;5055355;28;20534;-66
2022/08/04 07:10:07;;;;;;;6.82;4.57;;;;;;;;;;5059261;28;20185;-66
2022/08/04 07:12:32;;;;;;;11.75;4.93;;;;;;;;;;5062311;28;20193;-65
2022/08/04 07:14:58;;;;;;;10.25;4.85;;;;;;;;;;5063344;28;20192;-64
2022/08/04 07:17:25;;;;;;;10.07;4.70;;;;;;;;;;5063077;28;20207;-65
2022/08/04 07:19:51;;;;;;;14.13;4.72;;;;;;;;;;5065075;28;20184;-64
2022/08/04 07:22:18;;;;;;;10.10;3.80;;;;;;;;;;5066382;28;20481;-65
2022/08/04 07:24:43;;;;;;;10.23;3.53;;;;;;;;;;5066603;28;20611;-66
2022/08/04 07:27:09;;;;;;;11.80;4.05;;;;;;;;;;5066670;28;20310;-64
2022/08/04 07:29:35;;;;;;;9.48;4.65;;;;;;;;;;5057700;28;20471;-65
2022/08/04 07:32:02;;;;;;;16.02;4.93;;;;;;;;;;4360276;28;10000881;-64
2022/08/04 07:34:28;;;;;;;12.20;4.22;;;;;;;;;;5052879;28;20381;-65
2022/08/04 07:36:56;;;;;;;14.98;4.20;;;;;;;;;;5059178;28;20219;-64
2022/08/04 07:39:24;;;;;;;12.48;4.45;;;;;;;;;;5047413;28;20204;-64
2022/08/04 07:41:50;;;;;;;10.55;4.63;;;;;;;;;;5065112;28;20188;-64
2022/08/04 07:44:16;;;;;;;15.57;4.85;;;;;;;;;;5053972;28;20734;-64
2022/08/04 07:46:43;;;;;;;11.63;4.95;;;;;;;;;;5046765;28;20197;-64
2022/08/04 07:49:09;;;;;;;11.15;4.63;;;;;;;;;;5047348;28;20185;-64
2022/08/04 07:51:36;;;;;;;13.20;4.18;;;;;;;;;;5056225;28;20254;-64
2022/08/04 07:54:03;;;;;;;10.10;4.53;;;;;;;;;;5045709;28;20668;-65
2022/08/04 07:56:30;;;;;;;16.17;4.38;;;;;;;;;;5064130;28;20190;-65
2022/08/04 07:58:55;;;;;;;14.73;5.18;;;;;;;;;;5056453;28;20220;-64
2022/08/04 08:01:22;;;;;;;13.77;4.47;;;;;;;;;;5055798;28;20188;-64
2022/08/04 08:03:49;;;;;;;15.60;4.70;;;;;;;;;;5047316;28;20194;-64
2022/08/04 08:06:14;;;;;;;10.10;3.80;;;;;;;;;;5054767;28;20228;-64
2022/08/04 08:08:40;;;;;;;12.52;4.60;;;;;;;;;;5055524;28;20283;-65
2022/08/04 08:11:06;;;;;;;7.60;3.63;;;;;;;;;;5058944;28;20188;-65
2022/08/04 08:13:32;;;;;;;13.20;4.20;;;;;;;;;;5060152;28;20180;-65
2022/08/04 08:15:58;;;;;;;11.13;3.92;;;;;;;;;;5064268;28;20754;-65
2022/08/04 08:18:24;;;;;;;9.05;4.22;;;;;;;;;;5059120;28;20197;-65
2022/08/04 08:20:51;;;;;;;9.25;3.83;;;;;;;;;;5065724;28;20283;-65
2022/08/04 08:23:17;;;;;;;9.20;4.43;;;;;;;;;;5061850;28;20683;-66
2022/08/04 08:25:42;;;;;;;16.90;4.13;;;;;;;;;;5059960;28;20237;-65
2022/08/04 08:28:08;;;;;;;9.52;3.80;;;;;;;;;;5056044;28;20203;-65
2022/08/04 08:30:34;;;;;;;13.30;4.53;;;;;;;;;;5053004;28;20184;-66
2022/08/04 08:33:04;;;;;;;13.52;4.85;;;;;;;;;;5053782;28;20776;-66
2022/08/04 08:35:38;;;;;;;9.73;3.80;;;;;;;;;;5054567;28;20189;-65
2022/08/04 08:38:05;;;;;;;10.90;3.88;;;;;;;;;;5054700;28;20200;-65
2022/08/04 08:40:49;;;;;;;8.55;3.55;;;;;;;;;;5056392;28;20212;-65
2022/08/04 08:43:39;;;;;;;11.65;4.07;;;;;;;;;;5056402;28;20198;-67
2022/08/04 08:46:32;;;;;;;16.17;4.20;;;;;;;;;;5058104;28;20184;-66
2022/08/04 08:49:30;;;;;;;11.02;4.53;;;;;;;;;;5058386;28;20189;-66
2022/08/04 08:52:34;;;;;;;12.02;4.00;;;;;;;;;;5057467;28;20186;-65
2022/08/04 08:55:25;;;;;;;6.00;3.15;;;;;;;;;;5053529;28;20185;-65
2022/08/04 08:58:34;;;;;;;11.93;3.65;;;;;;;;;;5057341;28;20583;-65
2022/08/04 09:01:17;;;;;;;9.90;3.90;;;;;;;;;;5055575;28;20192;-65
2022/08/04 09:04:24;;;;;;;5.82;2.83;;;;;;;;;;5055136;28;20259;-65
2022/08/04 09:07:34;;;;;;;7.13;3.22;;;;;;;;;;5055518;28;20668;-65
2022/08/04 09:10:35;;;;;;;10.52;3.70;;;;;;;;;;5057763;28;20648;-65
2022/08/04 09:13:09;;;;;;;9.93;3.30;;;;;;;;;;5051856;28;20260;-66
2022/08/04 09:16:06;;;;;;;11.95;3.83;;;;;;;;;;5063517;28;20222;-66
2022/08/04 09:18:55;;;;;;;8.95;3.05;;;;;;;;;;5056117;28;20232;-66
2022/08/04 09:21:43;;;;;;;9.13;3.28;;;;;;;;;;5057081;28;20196;-65
2022/08/04 09:24:21;;;;;;;9.45;3.28;;;;;;;;;;5053897;28;20240;-64
2022/08/04 09:27:14;;;;;;;11.82;3.55;;;;;;;;;;5055390;28;20240;-65
2022/08/04 09:30:04;;;;;;;9.30;3.70;;;;;;;;;;5052964;28;20212;-65
2022/08/04 09:32:43;;;;;;;9.38;2.90;;;;;;;;;;5051635;28;20216;-64
2022/08/04 09:35:35;;;;;;;11.10;3.13;;;;;;;;;;5055188;28;20188;-65
2022/08/04 09:38:28;;;;;;;10.00;3.38;;;;;;;;;;5056203;28;20293;-64
2022/08/04 09:41:24;;;;;;;13.73;3.70;;;;;;;;;;5057127;28;20667;-64
2022/08/04 09:44:23;;;;;;;10.70;3.10;;;;;;;;;;5052242;28;20181;-64
2022/08/04 09:46:56;;;;;;;8.73;3.60;;;;;;;;;;5060939;28;20185;-64
2022/08/04 09:49:35;;;;;;;6.32;2.46;;;;;;;;;;4360363;28;10021534;-63
2022/08/04 09:52:26;;;;;;;5.88;2.47;;;;;;;;;;5049650;28;20645;-63
2022/08/04 09:55:12;;;;;;;7.85;2.90;;;;;;;;;;5054051;28;20653;-64
2022/08/04 09:58:03;;;;;;;9.75;3.75;;;;;;;;;;5053884;28;20259;-65
2022/08/04 10:00:50;;;;;;;9.57;3.00;;;;;;;;;;5050796;28;20194;-65
2022/08/04 10:03:17;;;;;;;10.13;3.10;;;;;;;;;;5056730;28;20178;-65
2022/08/04 10:06:11;;;;;;;6.78;3.40;;;;;;;;;;5052655;28;20211;-64
2022/08/04 10:09:08;;;;;;;9.85;3.00;;;;;;;;;;5054213;28;20879;-65
2022/08/04 10:11:55;;;;;;;5.55;3.38;;;;;;;;;;5052191;28;20188;-65
2022/08/04 10:14:23;;;;;;;11.38;3.78;;;;;;;;;;5055118;28;20184;-64
2022/08/04 10:17:18;;;;;;;8.07;3.20;;;;;;;;;;5054589;28;20272;-65
2022/08/04 10:19:45;;;;;;;8.75;3.22;;;;;;;;;;5046853;28;20189;-64
2022/08/04 10:22:19;;;;;;;6.10;3.10;;;;;;;;;;5051601;28;20280;-66
2022/08/04 10:25:16;;;;;;;6.28;3.20;;;;;;;;;;5050081;28;20189;-65
2022/08/04 10:28:07;;;;;;;7.55;3.22;;;;;;;;;;5047983;28;20671;-65
2022/08/04 10:30:38;;;;;;;8.30;3.58;;;;;;;;;;5057568;28;20192;-65
2022/08/04 10:33:40;;;;;;;12.98;3.90;;;;;;;;;;5049470;28;20710;-65
2022/08/04 10:36:09;;;;;;;10.82;3.67;;;;;;;;;;5051829;28;20197;-65
2022/08/04 10:38:44;;;;;;;7.53;3.53;;;;;;;;;;5061970;28;20205;-65
2022/08/04 10:41:31;;;;;;;8.52;3.92;;;;;;;;;;5062195;28;20275;-65
2022/08/04 10:44:12;;;;;;;10.15;3.45;;;;;;;;;;4704193;28;10000950;-65
2022/08/04 10:46:45;;;;;;;10.85;3.63;;;;;;;;;;5054190;28;20586;-65
2022/08/04 10:49:41;;;;;;;9.00;3.45;;;;;;;;;;5058831;28;20267;-65
2022/08/04 10:52:21;;;;;;;8.95;3.40;;;;;;;;;;5048775;28;20192;-66
2022/08/04 10:55:06;;;;;;;8.00;3.08;;;;;;;;;;5051594;28;20176;-67
2022/08/04 10:57:37;;;;;;;13.60;3.17;;;;;;;;;;5055664;28;20208;-65
2022/08/04 11:00:09;;;;;;;11.18;3.45;;;;;;;;;;5053761;28;20692;-65
2022/08/04 11:03:14;;;;;;;9.98;3.25;;;;;;;;;;5058022;28;20177;-66
2022/08/04 11:05:52;;;;;;;16.17;3.83;;;;;;;;;;5056728;28;20234;-65
2022/08/04 11:08:34;;;;;;;7.55;3.45;;;;;;;;;;5054862;28;20607;-65
2022/08/04 11:11:13;;;;;;;8.63;3.63;;;;;;;;;;5047562;28;20214;-65
2022/08/04 11:13:50;;;;;;;8.48;3.47;;;;;;;;;;5050695;28;20682;-64
2022/08/04 11:16:21;;;;;;;12.18;3.92;;;;;;;;;;5049756;28;20274;-65
2022/08/04 11:19:11;;;;;;;7.72;3.42;;;;;;;;;;5053898;28;20246;-65
2022/08/04 11:21:43;;;;;;;10.60;4.15;;;;;;;;;;5054448;28;20276;-65
2022/08/04 11:24:21;;;;;;;11.88;5.35;;;;;;;;;;5054773;28;20648;-67
2022/08/04 11:26:50;;;;;;;10.25;5.13;;;;;;;;;;5062623;28;20227;-65
2022/08/04 11:29:30;;;;;;;12.18;4.35;;;;;;;;;;5061473;28;20186;-65
2022/08/04 11:31:58;;;;;;;11.65;4.90;;;;;;;;;;5055068;28;20213;-64
2022/08/04 11:34:25;;;;;;;7.55;5.00;;;;;;;;;;5049078;28;20220;-69
2022/08/04 11:37:12;;;;;;;8.43;4.68;;;;;;;;;;5047573;28;20311;-64
2022/08/04 11:40:08;;;;;;;10.55;4.22;;;;;;;;;;5051536;28;20626;-65
2022/08/04 11:42:47;;;;;;;7.95;4.00;;;;;;;;;;5044943;28;20188;-65
2022/08/04 11:45:16;;;;;;;8.68;3.40;;;;;;;;;;5059807;28;20251;-66
2022/08/04 11:48:02;;;;;;;11.32;3.22;;;;;;;;;;5051031;28;20252;-66
2022/08/04 11:50:37;;;;;;;12.10;2.90;;;;;;;;;;5048051;28;20188;-64
2022/08/04 11:53:05;;;;;;;9.00;2.80;;;;;;;;;;5054039;28;20185;-65
2022/08/04 11:55:32;;;;;;;9.43;2.88;;;;;;;;;;5053995;28;20251;-64
2022/08/04 11:57:58;;;;;;;8.40;2.67;;;;;;;;;;5051289;28;20199;-64
2022/08/04 12:00:26;;;;;;;16.35;3.50;;;;;;;;;;5052336;28;20580;-68
2022/08/04 12:03:25;;;;;;;17.15;4.07;;;;;;;;;;5051747;28;20219;-69
2022/08/04 12:06:16;;;;;;;15.20;4.00;;;;;;;;;;5053041;28;20212;-68
2022/08/04 12:09:01;;;;;;;9.38;4.05;;;;;;;;;;5051904;28;20181;-69
2022/08/04 12:11:41;;;;;;;18.02;4.40;;;;;;;;;;5052811;28;20212;-69
2022/08/04 12:14:34;;;;;;;11.07;4.55;;;;;;;;;;5050674;28;20252;-70
2022/08/04 12:17:01;;;;;;;12.35;5.20;;;;;;;;;;5054156;28;20181;-70
2022/08/04 12:19:37;;;;;;;12.82;4.90;;;;;;;;;;5050416;28;20193;-69
2022/08/04 12:22:08;;;;;;;13.05;4.85;;;;;;;;;;5053477;28;20193;-69
2022/08/04 12:24:40;;;;;;;12.65;5.32;;;;;;;;;;5052582;28;20176;-70
2022/08/04 12:27:15;;;;;;;13.25;5.50;;;;;;;;;;5051016;28;20221;-71
2022/08/04 12:29:41;;;;;;;14.50;5.68;;;;;;;;;;5057197;28;20181;-71
2022/08/04 12:32:12;;;;;;;12.65;5.13;;;;;;;;;;5059363;28;20262;-70
2022/08/04 12:34:45;;;;;;;10.55;5.28;;;;;;;;;;5054283;28;20188;-70
2022/08/04 12:37:27;;;;;;;11.10;5.70;;;;;;;;;;5051173;28;20181;-68
2022/08/04 12:39:56;;;;;;;10.77;6.47;;;;;;;;;;5052157;28;20673;-72
2022/08/04 12:42:26;;;;;;;17.23;6.70;;;;;;;;;;5055500;28;20181;-70
2022/08/04 12:44:53;;;;;;;11.95;6.00;;;;;;;;;;5055052;28;20260;-70
2022/08/04 12:47:23;;;;;;;12.00;5.93;;;;;;;;;;5053120;28;20184;-67
2022/08/04 12:49:49;;;;;;;11.93;5.72;;;;;;;;;;5055696;28;20628;-66
2022/08/04 12:52:17;;;;;;;8.82;6.00;;;;;;;;;;5054406;28;20640;-66
2022/08/04 12:54:45;;;;;;;8.68;5.95;;;;;;;;;;5054583;28;20188;-66
2022/08/04 12:57:13;;;;;;;10.82;5.20;;;;;;;;;;5055107;28;20177;-65
2022/08/04 12:59:40;;;;;;;13.02;5.75;;;;;;;;;;5055736;28;20172;-65
2022/08/04 13:02:22;;;;;;;10.68;6.00;;;;;;;;;;5053204;28;20290;-65
2022/08/04 13:04:49;;;;;;;14.57;5.30;;;;;;;;;;5055908;28;20653;-65
2022/08/04 13:07:19;;;;;;;10.02;5.63;;;;;;;;;;5053706;28;20203;-64
2022/08/04 13:09:45;;;;;;;12.38;5.43;;;;;;;;;;5060924;28;20192;-64
2022/08/04 13:12:13;;;;;;;10.95;5.57;;;;;;;;;;5053884;28;20540;-64
2022/08/04 13:14:43;;;;;;;14.15;5.32;;;;;;;;;;5051549;28;20624;-64
2022/08/04 13:17:09;;;;;;;15.93;5.40;;;;;;;;;;5055348;28;20228;-65
2022/08/04 13:19:35;;;;;;;10.05;5.53;;;;;;;;;;5057198;28;20179;-65
2022/08/04 13:22:01;;;;;;;12.07;5.43;;;;;;;;;;5053186;28;20185;-65
2022/08/04 13:24:28;;;;;;;11.57;5.28;;;;;;;;;;5057605;28;20676;-65
2022/08/04 13:27:00;;;;;;;11.57;5.20;;;;;;;;;;5055880;28;20223;-65
2022/08/04 13:29:47;;;;;;;9.55;4.85;;;;;;;;;;5057297;28;20632;-63
2022/08/04 13:32:21;;;;;;;9.77;4.32;;;;;;;;;;5050437;28;20209;-65
2022/08/04 13:34:48;;;;;;;7.57;4.40;;;;;;;;;;5054586;28;20210;-65
2022/08/04 13:37:14;;;;;;;10.15;5.05;;;;;;;;;;5059426;28;20188;-65
2022/08/04 13:39:45;;;;;;;10.77;4.35;;;;;;;;;;5051305;28;20204;-66
2022/08/04 13:42:12;;;;;;;11.32;3.97;;;;;;;;;;5055699;28;20267;-65
2022/08/04 13:44:41;;;;;;;8.38;3.72;;;;;;;;;;5058528;28;20177;-65
2022/08/04 13:47:23;;;;;;;6.05;3.65;;;;;;;;;;5055749;28;20201;-66
2022/08/04 13:50:06;;;;;;;10.63;3.83;;;;;;;;;;5052533;28;20173;-65
2022/08/04 13:52:33;;;;;;;4.68;3.30;;;;;;;;;;5054481;28;20886;-65
2022/08/04 13:54:58;;;;;;;4.18;3.20;;;;;;;;;;5054242;28;20268;-65
2022/08/04 13:57:30;;;;;;;7.50;3.50;;;;;;;;;;5054674;28;20264;-65
2022/08/04 14:00:00;;;;;;;7.03;3.35;;;;;;;;;;5058009;28;21005;-65
2022/08/04 14:02:40;;;;;;;7.22;3.58;;;;;;;;;;5050700;28;20533;-65
2022/08/04 14:05:20;;;;;;;7.40;2.50;;;;;;;;;;4352944;28;10000823;-66
2022/08/04 14:08:09;;;;;;;5.20;2.40;;;;;;;;;;5053711;28;20444;-65
2022/08/04 14:10:35;;;;;;;7.00;2.58;;;;;;;;;;5046269;28;20564;-65
2022/08/04 14:13:04;;;;;;;6.20;2.97;;;;;;;;;;5047314;28;20193;-65
2022/08/04 14:15:44;;;;;;;5.40;2.55;;;;;;;;;;5055813;28;20543;-65
2022/08/04 14:18:17;;;;;;;6.05;2.67;;;;;;;;;;5054926;28;20635;-65
2022/08/04 14:20:58;;;;;;;5.75;2.42;;;;;;;;;;5055021;28;20195;-64
2022/08/04 14:23:24;;;;;;;4.13;2.72;;;;;;;;;;5051557;28;20200;-65
2022/08/04 14:25:50;;;;;;;6.25;2.60;;;;;;;;;;5058179;28;20251;-64
2022/08/04 14:28:26;;;;;;;6.50;2.50;;;;;;;;;;5051496;28;20177;-65
2022/08/04 14:30:52;;;;;;;5.30;2.58;;;;;;;;;;5055674;28;20552;-65
2022/08/04 14:33:21;;;;;;;4.25;2.33;;;;;;;;;;5051665;28;20186;-65
2022/08/04 14:35:57;;;;;;;6.25;2.15;;;;;;;;;;5050325;28;20176;-65
2022/08/04 14:38:22;;;;;;;4.13;2.20;;;;;;;;;;5051340;28;20313;-64
2022/08/04 14:40:47;;;;;;;5.13;2.63;;;;;;;;;;5046870;28;20217;-63
2022/08/04 14:43:16;;;;;;;4.63;2.17;;;;;;;;;;5049610;28;20640;-64
2022/08/04 14:45:44;;;;;;;5.18;1.80;;;;;;;;;;5052153;28;20181;-64
2022/08/04 14:48:12;;;;;;;4.68;1.90;;;;;;;;;;5046244;28;20482;-63
2022/08/04 14:50:39;;;;;;;5.85;2.20;;;;;;;;;;5048795;28;20196;-65
2022/08/04 14:53:08;;;;;;;3.78;1.95;;;;;;;;;;5051899;28;20211;-65
2022/08/04 14:55:35;;;;;;;2.58;1.50;;;;;;;;;;5047791;28;20184;-65
2022/08/04 14:58:00;;;;;;;5.32;1.80;;;;;;;;;;5047694;28;20245;-66
2022/08/04 15:00:29;;;;;;;1.90;1.50;;;;;;;;;;5045904;28;20260;-66
2022/08/04 15:03:07;;;;;;;4.15;1.60;;;;;;;;;;5047640;28;20199;-66
2022/08/04 15:05:38;;;;;;;4.55;1.92;;;;;;;;;;5047500;28;20251;-66
2022/08/04 15:08:04;;;;;;;5.95;1.77;;;;;;;;;;5053743;28;20686;-66
2022/08/04 15:10:29;;;;;;;5.50;1.65;;;;;;;;;;5053712;28;20177;-69
2022/08/04 15:12:55;;;;;;;2.70;1.70;;;;;;;;;;5043852;28;20719;-66
2022/08/04 15:15:22;;;;;;;4.43;2.00;;;;;;;;;;5055292;28;20473;-65
2022/08/04 15:17:48;;;;;;;4.65;1.42;;;;;;;;;;5050403;28;20224;-65
2022/08/04 15:20:16;;;;;;;4.07;1.75;;;;;;;;;;5045804;28;20192;-65
2022/08/04 15:22:41;;;;;;;1.85;1.40;;;;;;;;;;5048854;28;20189;-65
2022/08/04 15:25:07;;;;;;;5.78;1.58;;;;;;;;;;5047547;28;20255;-64
2022/08/04 15:27:36;;;;;;;3.50;1.55;;;;;;;;;;5049253;28;20253;-65
2022/08/04 15:30:05;;;;;;;2.85;1.58;;;;;;;;;;5055171;28;20177;-65
2022/08/04 15:32:33;;;;;;;4.07;1.60;;;;;;;;;;5055995;28;20664;-65